Time;durP1;ratioP1;P1;durP2;ratioP2;P2;SDS_P1;SDS_P2;PMS_P1;PMS_P2;Temp;Humidity;BMP_temperature;BMP_pressure;BME280_temperature;BME280_humidity;BME280_pressure;Samples;Min_cycle;Max_cycle;Signal;HPM_P1;HPM_P2
2021/12/01 00:00:56;;;;;;;2.92;1.90;;;14.20;74.30;;;;;;4186047;28;20125;-70
2021/12/01 00:03:00;;;;;;;2.67;1.77;;;14.20;74.30;;;;;;4176479;28;20091;-71
2021/12/01 00:05:05;;;;;;;3.45;2.08;;;14.20;74.30;;;;;;4186601;28;20120;-70
2021/12/01 00:07:09;;;;;;;3.47;2.05;;;14.20;74.30;;;;;;4181242;28;20072;-71
2021/12/01 00:09:12;;;;;;;2.67;1.73;;;14.20;74.30;;;;;;4183963;28;20117;-71
2021/12/01 00:11:15;;;;;;;4.15;2.13;;;14.20;74.40;;;;;;4188776;28;20075;-71
2021/12/01 00:13:20;;;;;;;3.22;1.67;;;14.20;74.30;;;;;;4179284;28;20060;-71
2021/12/01 00:15:25;;;;;;;3.72;1.90;;;14.20;74.40;;;;;;4188054;28;20060;-71
2021/12/01 00:17:29;;;;;;;4.90;1.90;;;14.20;74.40;;;;;;4188324;28;20393;-70
2021/12/01 00:19:33;;;;;;;2.85;1.65;;;14.20;74.30;;;;;;4178274;28;20120;-71
2021/12/01 00:21:36;;;;;;;2.90;1.65;;;14.20;74.40;;;;;;4175279;28;20073;-72
2021/12/01 00:23:39;;;;;;;4.97;1.85;;;14.20;74.40;;;;;;4185134;28;20392;-70
2021/12/01 00:25:43;;;;;;;3.35;1.90;;;14.20;74.40;;;;;;4174197;28;20098;-72
2021/12/01 00:27:46;;;;;;;3.00;1.63;;;14.20;74.40;;;;;;4178446;28;20147;-70
2021/12/01 00:29:50;;;;;;;4.28;1.77;;;14.20;74.40;;;;;;4179562;28;20120;-70
2021/12/01 00:31:54;;;;;;;3.10;1.65;;;14.20;74.40;;;;;;4175170;28;20242;-71
2021/12/01 00:33:57;;;;;;;2.70;1.52;;;14.20;74.40;;;;;;4186496;28;20822;-70
2021/12/01 00:36:00;;;;;;;4.10;1.92;;;14.20;74.40;;;;;;4189749;28;20480;-70
2021/12/01 00:38:04;;;;;;;2.90;1.58;;;14.20;74.40;;;;;;4184841;28;20125;-71
2021/12/01 00:40:10;;;;;;;3.75;1.67;;;14.20;74.40;;;;;;4185018;28;20128;-71
2021/12/01 00:42:13;;;;;;;3.05;1.90;;;14.20;74.40;;;;;;4190710;28;20235;-71
2021/12/01 00:44:16;;;;;;;3.13;1.77;;;14.20;74.40;;;;;;4188943;28;20108;-71
2021/12/01 00:46:24;;;;;;;3.85;1.70;;;14.20;74.40;;;;;;4192201;28;20069;-71
2021/12/01 00:48:29;;;;;;;3.65;1.77;;;14.20;74.40;;;;;;4187308;28;20120;-71
2021/12/01 00:50:33;;;;;;;3.90;1.63;;;14.20;74.40;;;;;;4179973;28;20073;-70
2021/12/01 00:52:36;;;;;;;4.35;1.92;;;14.20;74.50;;;;;;4174628;28;20117;-71
2021/12/01 00:54:39;;;;;;;2.70;1.52;;;14.20;74.50;;;;;;4188772;28;20384;-70
2021/12/01 00:56:44;;;;;;;4.20;1.70;;;14.20;74.50;;;;;;4190261;28;20281;-71
2021/12/01 00:58:47;;;;;;;4.30;1.73;;;14.20;74.60;;;;;;4183361;28;20112;-70
2021/12/01 01:00:50;;;;;;;2.85;1.48;;;14.20;74.50;;;;;;4183976;28;20117;-70
2021/12/01 01:02:56;;;;;;;2.20;1.50;;;14.20;74.60;;;;;;4188366;28;20049;-71
2021/12/01 01:05:01;;;;;;;2.50;1.52;;;14.30;74.60;;;;;;4178892;28;20069;-71
2021/12/01 01:07:04;;;;;;;2.65;1.63;;;14.30;74.60;;;;;;4189280;28;20356;-70
2021/12/01 01:09:08;;;;;;;3.08;1.65;;;14.20;74.50;;;;;;4183724;28;20117;-71
2021/12/01 01:16:22;;;;;;;5.40;1.65;;;14.20;74.60;;;;;;4181813;28;20116;-71
2021/12/01 01:18:18;;;;;;;2.45;1.50;;;14.30;74.60;;;;;;4189765;28;20069;-70
2021/12/01 01:20:23;;;;;;;2.88;1.63;;;14.30;74.50;;;;;;4189110;28;20293;-71
2021/12/01 01:22:26;;;;;;;2.08;1.38;;;14.20;74.50;;;;;;4189422;28;20120;-71
2021/12/01 01:24:29;;;;;;;2.25;1.73;;;14.30;74.60;;;;;;4184421;28;20049;-71
2021/12/01 01:26:33;;;;;;;2.50;1.58;;;14.30;74.50;;;;;;4182330;28;20116;-70
2021/12/01 01:28:36;;;;;;;3.10;1.33;;;14.30;74.60;;;;;;4189989;28;20291;-72
2021/12/01 01:30:39;;;;;;;3.45;1.38;;;14.30;74.60;;;;;;4189496;28;20432;-71
2021/12/01 01:32:43;;;;;;;2.45;1.45;;;14.30;74.50;;;;;;4190528;28;20296;-73
2021/12/01 01:34:46;;;;;;;2.08;1.27;;;14.30;74.50;;;;;;4185492;28;20065;-71
2021/12/01 01:36:51;;;;;;;4.53;1.52;;;14.30;74.50;;;;;;4181633;28;20061;-72
2021/12/01 01:38:54;;;;;;;;;;;14.30;74.50;;;;;;4190142;28;20095;-71
2021/12/01 01:40:57;;;;;;;5.70;1.40;;;14.30;74.50;;;;;;4177631;28;19976;-71
2021/12/01 01:43:00;;;;;;;4.00;1.40;;;14.30;74.50;;;;;;4171162;28;20060;-71
2021/12/01 01:45:04;;;;;;;3.20;1.42;;;14.30;74.50;;;;;;4185622;28;20472;-71
2021/12/01 01:47:09;;;;;;;3.53;1.52;;;14.30;74.50;;;;;;4180834;28;20069;-72
2021/12/01 01:49:34;;;;;;;4.00;0.93;;;14.30;74.40;;;;;;4189293;28;20092;-71
2021/12/01 01:51:40;;;;;;;2.08;1.42;;;14.30;75.00;;;;;;4176038;28;21284;-70
2021/12/01 01:53:44;;;;;;;2.17;1.23;;;14.30;74.50;;;;;;4179822;28;20108;-70
2021/12/01 01:55:49;;;;;;;1.63;1.17;;;14.30;74.50;;;;;;4181257;28;20084;-71
2021/12/01 01:57:52;;;;;;;2.50;1.50;;;14.30;74.50;;;;;;4183386;28;20088;-73
2021/12/01 01:59:55;;;;;;;2.40;1.27;;;14.30;74.50;;;;;;4186944;28;20257;-71
2021/12/01 02:02:00;;;;;;;4.47;1.63;;;14.30;74.50;;;;;;4176289;28;20080;-72
2021/12/01 02:04:03;;;;;;;3.10;1.30;;;14.30;74.60;;;;;;4188695;28;20080;-71
2021/12/01 02:06:09;;;;;;;3.15;1.35;;;14.30;74.60;;;;;;4182143;28;20091;-70
2021/12/01 02:08:17;;;;;;;2.50;1.30;;;14.30;74.70;;;;;;4183150;28;20116;-70
2021/12/01 02:10:21;;;;;;;2.97;1.20;;;14.30;74.70;;;;;;4187628;28;20156;-72
2021/12/01 02:12:25;;;;;;;3.03;1.50;;;14.30;74.70;;;;;;4177826;28;20110;-71
2021/12/01 02:14:29;;;;;;;1.73;1.40;;;14.30;74.80;;;;;;4189155;28;20112;-71
2021/12/01 02:16:33;;;;;;;2.05;1.23;;;14.30;74.80;;;;;;4179615;28;20072;-72
2021/12/01 02:18:37;;;;;;;3.35;1.10;;;14.30;74.80;;;;;;4186506;28;20076;-71
2021/12/01 02:20:56;;;;;;;2.83;1.38;;;14.30;74.80;;;;;;4188353;28;20120;-71
2021/12/01 02:23:00;;;;;;;3.38;1.35;;;14.30;74.90;;;;;;4183431;28;20080;-72
2021/12/01 02:25:03;;;;;;;1.60;1.20;;;14.30;74.90;;;;;;4172490;28;20053;-71
2021/12/01 02:27:06;;;;;;;1.52;1.20;;;14.30;74.90;;;;;;4181326;28;20084;-71
2021/12/01 02:29:13;;;;;;;4.85;1.40;;;14.30;74.90;;;;;;4175050;28;20112;-71
2021/12/01 02:31:16;;;;;;;2.50;1.15;;;14.30;74.90;;;;;;4171576;28;20124;-70
2021/12/01 02:33:20;;;;;;;2.25;1.30;;;14.30;74.90;;;;;;4176952;28;20115;-71
2021/12/01 02:35:23;;;;;;;2.50;1.20;;;14.30;74.90;;;;;;4186896;28;20124;-71
2021/12/01 02:37:27;;;;;;;6.07;1.38;;;14.30;75.00;;;;;;4183392;28;20286;-71
2021/12/01 02:39:31;;;;;;;1.83;1.13;;;14.30;75.00;;;;;;4174186;28;20122;-71
2021/12/01 02:41:35;;;;;;;4.00;1.40;;;14.30;75.00;;;;;;4172161;28;20304;-70
2021/12/01 02:43:38;;;;;;;4.30;1.20;;;14.30;75.00;;;;;;4187892;28;20293;-71
2021/12/01 02:45:42;;;;;;;5.03;1.15;;;14.30;75.10;;;;;;4188350;28;20103;-73
2021/12/01 02:47:45;;;;;;;1.73;1.17;;;14.30;75.10;;;;;;4182727;28;20064;-71
2021/12/01 02:49:50;;;;;;;3.13;1.30;;;14.30;75.20;;;;;;4173897;28;20140;-70
2021/12/01 02:51:55;;;;;;;2.97;1.15;;;14.30;75.20;;;;;;4174516;28;20396;-72
2021/12/01 02:53:59;;;;;;;2.15;1.10;;;14.30;75.30;;;;;;4187569;28;20108;-70
2021/12/01 02:56:04;;;;;;;4.00;1.17;;;14.30;75.30;;;;;;4188422;28;20303;-72
2021/12/01 02:58:07;;;;;;;3.78;1.35;;;14.30;75.30;;;;;;4178509;28;20442;-71
2021/12/01 03:00:13;;;;;;;2.40;1.20;;;14.30;75.40;;;;;;4185370;28;20112;-71
2021/12/01 03:02:17;;;;;;;1.73;1.00;;;14.30;75.50;;;;;;4186682;28;20068;-71
2021/12/01 03:04:21;;;;;;;1.90;1.30;;;14.30;75.50;;;;;;4176529;28;20124;-71
2021/12/01 03:06:26;;;;;;;4.07;1.45;;;14.30;75.50;;;;;;4187330;28;20051;-70
2021/12/01 03:08:30;;;;;;;2.63;1.20;;;14.30;75.60;;;;;;4178967;28;20080;-71
2021/12/01 03:10:34;;;;;;;3.35;1.30;;;14.30;75.60;;;;;;4186060;28;20080;-73
2021/12/01 03:12:39;;;;;;;1.10;0.90;;;14.30;75.60;;;;;;4187568;28;20104;-70
2021/12/01 03:14:42;;;;;;;4.78;1.92;;;14.30;75.60;;;;;;4188558;28;20068;-70
2021/12/01 03:16:46;;;;;;;2.05;1.20;;;14.30;75.60;;;;;;4188295;28;20065;-71
2021/12/01 03:18:50;;;;;;;3.15;1.15;;;14.30;75.70;;;;;;4180768;28;20069;-71
2021/12/01 03:20:53;;;;;;;2.85;1.10;;;14.30;75.70;;;;;;4172849;28;20152;-70
2021/12/01 03:22:57;;;;;;;2.00;1.20;;;14.30;75.80;;;;;;4172737;28;20077;-71
2021/12/01 03:25:00;;;;;;;2.38;1.10;;;14.30;75.80;;;;;;4182515;28;20065;-71
2021/12/01 03:27:05;;;;;;;1.65;1.20;;;14.30;75.80;;;;;;4171551;28;20069;-73
2021/12/01 03:29:08;;;;;;;;;;;14.20;75.80;;;;;;4176213;28;20080;-72
2021/12/01 03:31:11;;;;;;;1.92;1.10;;;14.30;75.90;;;;;;4185614;28;19940;-72
2021/12/01 03:33:17;;;;;;;2.13;0.98;;;14.30;75.90;;;;;;4188436;28;20112;-71
2021/12/01 03:35:21;;;;;;;2.55;1.20;;;14.30;75.90;;;;;;4176747;28;20381;-71
2021/12/01 03:37:24;;;;;;;1.42;0.90;;;14.30;75.90;;;;;;4188876;28;20361;-72
2021/12/01 03:39:27;;;;;;;2.70;1.10;;;14.30;75.90;;;;;;4179519;28;20069;-71
2021/12/01 03:41:33;;;;;;;4.18;1.20;;;14.30;75.90;;;;;;4185003;28;20083;-71
2021/12/01 03:43:37;;;;;;;1.75;1.00;;;14.30;76.00;;;;;;4190263;28;20136;-70
2021/12/01 03:45:41;;;;;;;2.85;1.30;;;14.30;76.00;;;;;;4178941;28;20077;-70
2021/12/01 03:47:44;;;;;;;1.13;0.98;;;14.30;76.10;;;;;;4191067;28;20083;-71
2021/12/01 03:49:47;;;;;;;3.40;1.00;;;14.30;76.10;;;;;;4186723;28;20068;-73
2021/12/01 03:51:50;;;;;;;1.42;0.90;;;14.30;76.20;;;;;;4184290;28;20104;-72
2021/12/01 03:53:53;;;;;;;2.25;0.90;;;14.30;76.30;;;;;;4189645;28;20049;-70
2021/12/01 03:55:56;;;;;;;3.58;1.10;;;14.30;76.30;;;;;;4179828;28;20123;-70
2021/12/01 03:57:59;;;;;;;1.08;0.82;;;14.30;76.30;;;;;;4191019;28;20139;-73
2021/12/01 04:00:08;;;;;;;2.03;1.00;;;14.30;76.40;;;;;;4183341;28;20535;-72
2021/12/01 04:02:11;;;;;;;2.10;0.88;;;14.30;76.50;;;;;;4188161;28;20405;-73
2021/12/01 04:04:14;;;;;;;2.90;0.90;;;14.30;76.50;;;;;;4189652;28;20112;-73
2021/12/01 04:06:17;;;;;;;3.28;1.02;;;14.30;76.50;;;;;;4179976;28;20075;-71
2021/12/01 04:08:21;;;;;;;1.23;0.90;;;14.30;76.60;;;;;;4190793;28;20379;-71
2021/12/01 04:10:24;;;;;;;1.48;0.98;;;14.30;76.60;;;;;;4182767;28;20080;-71
2021/12/01 04:12:27;;;;;;;1.45;1.17;;;14.30;76.70;;;;;;4186677;28;20092;-71
2021/12/01 04:14:30;;;;;;;1.60;0.90;;;14.30;76.80;;;;;;4189309;28;20064;-71
2021/12/01 04:16:34;;;;;;;1.55;1.00;;;14.30;76.80;;;;;;4179203;28;20079;-72
2021/12/01 04:18:39;;;;;;;1.95;0.95;;;14.30;76.90;;;;;;4190635;28;20112;-70
2021/12/01 04:20:42;;;;;;;1.63;1.00;;;14.30;76.90;;;;;;4185740;28;20068;-72
2021/12/01 04:22:46;;;;;;;2.20;0.98;;;14.30;77.00;;;;;;4177438;28;20077;-70
2021/12/01 04:24:49;;;;;;;4.63;0.80;;;14.30;77.10;;;;;;4174787;28;20108;-70
2021/12/01 04:26:53;;;;;;;2.65;1.13;;;14.30;77.10;;;;;;4185406;28;20080;-70
2021/12/01 04:28:56;;;;;;;1.02;0.75;;;14.30;77.20;;;;;;4174046;28;20300;-71
2021/12/01 04:31:00;;;;;;;1.83;0.90;;;14.30;77.30;;;;;;4178683;28;20470;-70
2021/12/01 04:33:04;;;;;;;1.25;0.80;;;14.30;77.40;;;;;;4178733;28;20084;-70
2021/12/01 04:35:08;;;;;;;1.77;1.05;;;14.30;77.30;;;;;;4175006;28;20084;-71
2021/12/01 04:37:12;;;;;;;2.22;0.70;;;14.30;77.40;;;;;;4185221;28;20480;-73
2021/12/01 04:39:18;;;;;;;1.58;0.98;;;14.30;77.40;;;;;;4173887;28;20124;-71
2021/12/01 04:41:22;;;;;;;1.27;0.80;;;14.30;77.60;;;;;;4179496;28;20077;-70
2021/12/01 04:43:25;;;;;;;0.98;0.80;;;14.30;77.60;;;;;;4181817;28;20068;-71
2021/12/01 04:45:31;;;;;;;1.15;0.80;;;14.30;77.60;;;;;;4189064;28;20083;-71
2021/12/01 04:47:38;;;;;;;1.92;1.00;;;14.30;77.60;;;;;;4179003;28;20466;-71
2021/12/01 04:49:43;;;;;;;0.95;0.70;;;14.30;77.80;;;;;;4189437;28;20079;-71
2021/12/01 04:51:55;;;;;;;1.73;0.90;;;14.30;77.80;;;;;;4181414;28;20061;-71
2021/12/01 04:53:59;;;;;;;1.08;0.73;;;14.30;77.90;;;;;;4183365;28;20076;-71
2021/12/01 04:56:02;;;;;;;2.20;0.90;;;14.30;78.00;;;;;;4188059;28;20104;-71
2021/12/01 04:58:05;;;;;;;1.77;0.98;;;14.30;77.90;;;;;;4178620;28;20108;-71
2021/12/01 05:00:12;;;;;;;1.33;0.82;;;14.30;78.00;;;;;;4190223;28;20293;-71
2021/12/01 05:02:15;;;;;;;0.93;0.80;;;14.30;78.00;;;;;;4180829;28;20095;-71
2021/12/01 05:04:18;;;;;;;1.70;0.90;;;14.30;78.20;;;;;;4186755;28;20112;-71
2021/12/01 05:06:23;;;;;;;2.38;0.90;;;14.30;78.20;;;;;;4188333;28;20108;-70
2021/12/01 05:08:26;;;;;;;1.58;1.10;;;14.30;78.30;;;;;;4178763;28;20068;-70
2021/12/01 05:10:29;;;;;;;1.25;0.90;;;14.30;78.30;;;;;;4188662;28;20091;-70
2021/12/01 05:12:34;;;;;;;1.25;0.85;;;14.30;78.40;;;;;;4181378;28;20073;-71
2021/12/01 05:14:37;;;;;;;;;;;14.30;78.50;;;;;;4186990;28;20112;-71
2021/12/01 05:16:41;;;;;;;1.83;0.90;;;14.30;78.60;;;;;;4187492;28;19916;-71
2021/12/01 05:18:44;;;;;;;2.50;0.93;;;14.30;78.60;;;;;;4185306;28;20065;-71
2021/12/01 05:20:47;;;;;;;1.63;0.82;;;14.30;78.70;;;;;;4173352;28;20069;-70
2021/12/01 05:22:51;;;;;;;1.52;0.77;;;14.30;79.20;;;;;;4181078;28;20116;-71
2021/12/01 05:24:54;;;;;;;2.13;0.70;;;14.30;78.80;;;;;;4177104;28;20108;-73
2021/12/01 05:26:58;;;;;;;1.15;0.90;;;14.30;78.80;;;;;;4174297;28;20404;-72
2021/12/01 05:29:01;;;;;;;1.67;0.90;;;14.30;78.80;;;;;;4184013;28;20415;-71
2021/12/01 05:31:05;;;;;;;1.30;0.70;;;14.30;78.80;;;;;;4173110;28;20068;-70
2021/12/01 05:33:09;;;;;;;0.50;0.45;;;14.30;78.70;;;;;;4180484;28;20112;-71
2021/12/01 05:35:17;;;;;;;0.90;0.70;;;14.30;78.80;;;;;;4176189;28;20084;-72
2021/12/01 05:37:21;;;;;;;0.90;0.65;;;14.30;78.80;;;;;;4174155;28;20075;-71
2021/12/01 05:39:25;;;;;;;1.85;0.60;;;14.30;78.80;;;;;;4183588;28;20072;-72
2021/12/01 05:41:28;;;;;;;1.15;0.60;;;14.30;78.90;;;;;;4173486;28;20116;-72
2021/12/01 05:43:32;;;;;;;1.17;0.65;;;14.30;78.90;;;;;;4181408;28;20065;-71
2021/12/01 05:45:36;;;;;;;1.35;0.88;;;14.30;79.00;;;;;;4189540;28;20069;-70
2021/12/01 05:47:39;;;;;;;0.50;0.50;;;14.30;79.00;;;;;;4188005;28;20275;-72
2021/12/01 05:49:44;;;;;;;0.60;0.50;;;14.30;79.00;;;;;;4174787;28;20049;-71
2021/12/01 05:51:47;;;;;;;0.70;0.60;;;14.30;79.00;;;;;;4180708;28;20104;-70
2021/12/01 05:53:51;;;;;;;2.00;0.65;;;14.30;79.00;;;;;;4181938;28;20112;-72
2021/12/01 05:55:56;;;;;;;1.25;0.60;;;14.30;78.90;;;;;;4188633;28;20065;-71
2021/12/01 05:57:59;;;;;;;0.73;0.65;;;14.30;79.00;;;;;;4187752;28;20045;-71
2021/12/01 06:00:04;;;;;;;0.50;0.50;;;14.30;79.00;;;;;;4177914;28;20068;-73
2021/12/01 06:02:07;;;;;;;0.98;0.70;;;14.30;79.10;;;;;;4189042;28;20112;-72
2021/12/01 06:04:10;;;;;;;0.40;0.40;;;14.30;79.00;;;;;;4181050;28;20263;-71
2021/12/01 06:06:13;;;;;;;1.75;0.65;;;14.30;79.10;;;;;;4183723;28;20064;-71
2021/12/01 06:08:16;;;;;;;0.50;0.50;;;14.30;79.10;;;;;;4187583;28;20112;-72
2021/12/01 06:10:20;;;;;;;0.80;0.50;;;14.30;79.20;;;;;;4177867;28;20069;-71
2021/12/01 06:12:24;;;;;;;0.82;0.60;;;14.30;79.10;;;;;;4188427;28;20136;-73
2021/12/01 06:14:27;;;;;;;1.45;0.55;;;14.30;79.10;;;;;;4181642;28;20112;-71
2021/12/01 06:16:30;;;;;;;0.60;0.50;;;14.30;79.10;;;;;;4183718;28;20067;-71
2021/12/01 06:18:33;;;;;;;2.03;0.47;;;14.30;79.10;;;;;;4188265;28;20116;-71
2021/12/01 06:20:37;;;;;;;0.45;0.38;;;14.30;79.30;;;;;;4175671;28;20095;-73
2021/12/01 06:22:41;;;;;;;0.30;0.30;;;14.30;79.30;;;;;;4189725;28;20057;-71
2021/12/01 06:24:44;;;;;;;0.57;0.30;;;14.40;79.40;;;;;;4182911;28;20108;-71
2021/12/01 06:26:47;;;;;;;1.60;0.60;;;14.30;79.40;;;;;;4183380;28;20057;-71
2021/12/01 06:28:51;;;;;;;1.13;0.75;;;14.30;79.50;;;;;;4187591;28;20223;-71
2021/12/01 06:30:55;;;;;;;1.25;0.75;;;14.30;79.50;;;;;;4177661;28;20117;-71
2021/12/01 06:32:59;;;;;;;1.43;0.50;;;14.30;79.50;;;;;;4189318;28;20072;-71
2021/12/01 06:35:02;;;;;;;0.47;0.43;;;14.40;79.50;;;;;;4184621;28;20537;-71
2021/12/01 06:37:05;;;;;;;0.60;0.40;;;14.30;79.40;;;;;;4177910;28;20064;-70
2021/12/01 06:39:09;;;;;;;0.47;0.38;;;14.30;79.50;;;;;;4173216;28;20148;-70
2021/12/01 06:41:12;;;;;;;0.60;0.50;;;14.30;79.40;;;;;;4182907;28;20073;-72
2021/12/01 06:43:15;;;;;;;1.10;0.70;;;14.30;79.30;;;;;;4172804;28;20123;-71
2021/12/01 06:45:21;;;;;;;0.75;0.52;;;14.40;79.40;;;;;;4182543;28;20076;-70
2021/12/01 06:47:24;;;;;;;0.80;0.40;;;14.40;79.40;;;;;;4181365;28;20269;-71
2021/12/01 06:49:27;;;;;;;0.75;0.40;;;14.40;79.50;;;;;;4186069;28;20060;-73
2021/12/01 06:51:30;;;;;;;0.35;0.30;;;14.30;79.50;;;;;;4182745;28;20060;-71
2021/12/01 06:53:34;;;;;;;0.40;0.40;;;14.30;79.40;;;;;;4187331;28;20116;-70
2021/12/01 06:55:37;;;;;;;1.67;0.50;;;14.30;79.40;;;;;;4182790;28;20397;-70
2021/12/01 06:57:40;;;;;;;0.40;0.40;;;14.40;79.50;;;;;;4181626;28;20092;-70
2021/12/01 06:59:43;;;;;;;0.55;0.47;;;14.30;79.40;;;;;;4186542;28;20079;-70
2021/12/01 07:01:47;;;;;;;0.60;0.52;;;14.40;79.50;;;;;;4173145;28;20069;-70
2021/12/01 07:03:50;;;;;;;0.50;0.35;;;14.30;79.40;;;;;;4188042;28;20357;-71
2021/12/01 07:05:53;;;;;;;0.60;0.50;;;14.30;79.40;;;;;;4183308;28;20113;-71
2021/12/01 07:07:56;;;;;;;0.60;0.32;;;14.40;80.10;;;;;;4180261;28;20072;-70
2021/12/01 07:09:59;;;;;;;0.88;0.50;;;14.40;79.50;;;;;;4188162;28;20116;-71
2021/12/01 07:12:03;;;;;;;1.40;0.70;;;14.40;79.50;;;;;;4186428;28;20076;-70
2021/12/01 07:14:06;;;;;;;0.60;0.45;;;14.40;79.60;;;;;;4171835;28;20072;-71
2021/12/01 07:16:09;;;;;;;0.57;0.50;;;14.40;79.50;;;;;;4173272;28;20121;-72
2021/12/01 07:18:14;;;;;;;1.27;0.32;;;14.40;79.60;;;;;;4188156;28;20116;-70
2021/12/01 07:20:21;;;;;;;0.88;0.40;;;14.40;79.60;;;;;;4187365;28;20120;-71
2021/12/01 07:22:24;;;;;;;1.48;0.60;;;14.40;79.50;;;;;;4186780;28;20072;-70
2021/12/01 07:24:29;;;;;;;0.52;0.30;;;14.40;79.70;;;;;;4171254;28;20173;-70
2021/12/01 07:26:32;;;;;;;;;;;14.40;79.70;;;;;;4176444;28;20069;-69
2021/12/01 07:28:35;;;;;;;0.40;0.40;;;14.40;79.70;;;;;;4179309;28;19985;-70
2021/12/01 07:30:39;;;;;;;1.77;0.50;;;14.40;79.80;;;;;;4171693;28;20073;-71
2021/12/01 07:32:43;;;;;;;0.73;0.50;;;14.40;79.70;;;;;;4176438;28;20069;-70
2021/12/01 07:34:47;;;;;;;1.13;0.50;;;14.40;79.70;;;;;;4187720;28;20119;-71
2021/12/01 07:36:50;;;;;;;0.40;0.22;;;14.40;79.70;;;;;;4182437;28;20124;-72
2021/12/01 07:38:58;;;;;;;2.00;0.60;;;14.40;79.60;;;;;;4179417;28;20108;-72
2021/12/01 07:41:01;;;;;;;1.30;0.57;;;14.40;79.60;;;;;;4187693;28;20079;-71
2021/12/01 07:43:04;;;;;;;0.50;0.50;;;14.40;79.50;;;;;;4176702;28;20145;-72
2021/12/01 07:45:08;;;;;;;1.73;0.60;;;14.40;80.00;;;;;;4187824;28;20120;-71
2021/12/01 07:47:11;;;;;;;2.25;0.68;;;14.40;79.40;;;;;;4183590;28;20103;-70
2021/12/01 07:49:14;;;;;;;1.25;0.40;;;14.40;79.40;;;;;;4179356;28;20069;-70
2021/12/01 07:51:18;;;;;;;2.40;0.38;;;14.40;79.30;;;;;;4173436;28;20290;-70
2021/12/01 07:53:21;;;;;;;1.42;0.55;;;14.40;79.30;;;;;;4183801;28;20167;-70
2021/12/01 07:55:24;;;;;;;1.50;0.50;;;14.40;79.30;;;;;;4171354;28;20113;-70
2021/12/01 07:57:28;;;;;;;1.08;0.63;;;14.40;79.30;;;;;;4175369;28;20064;-71
2021/12/01 07:59:31;;;;;;;4.07;0.65;;;14.40;79.20;;;;;;4178405;28;20069;-70
2021/12/01 08:01:34;;;;;;;1.70;0.52;;;14.40;79.30;;;;;;4187850;28;20073;-71
2021/12/01 08:03:38;;;;;;;0.90;0.47;;;14.40;79.30;;;;;;4175703;28;20116;-71
2021/12/01 08:05:41;;;;;;;2.20;0.50;;;14.40;79.20;;;;;;4187258;28;20117;-70
2021/12/01 08:07:46;;;;;;;0.63;0.40;;;14.50;79.20;;;;;;4184602;28;20061;-72
2021/12/01 08:09:49;;;;;;;1.00;0.50;;;14.50;79.30;;;;;;4179561;28;20108;-71
2021/12/01 08:11:52;;;;;;;0.77;0.52;;;14.40;79.30;;;;;;4188891;28;20114;-71
2021/12/01 08:13:56;;;;;;;1.67;0.38;;;14.50;79.30;;;;;;4177062;28;20108;-71
2021/12/01 08:16:00;;;;;;;1.80;0.70;;;14.50;79.30;;;;;;4186684;28;20072;-72
2021/12/01 08:18:03;;;;;;;1.52;0.55;;;14.50;79.20;;;;;;4182872;28;20108;-73
2021/12/01 08:20:07;;;;;;;0.45;0.38;;;14.40;79.80;;;;;;4180726;28;20369;-72
2021/12/01 08:22:10;;;;;;;1.25;0.40;;;14.50;79.20;;;;;;4171149;28;20080;-72
2021/12/01 08:24:15;;;;;;;2.08;0.50;;;14.50;79.10;;;;;;4181801;28;20226;-71
2021/12/01 08:26:19;;;;;;;1.33;0.43;;;14.50;79.10;;;;;;4170627;28;20120;-70
2021/12/01 08:28:22;;;;;;;0.70;0.50;;;14.50;79.20;;;;;;4173135;28;20109;-71
2021/12/01 08:30:26;;;;;;;1.95;0.60;;;14.50;79.20;;;;;;4189891;28;20371;-72
2021/12/01 08:32:29;;;;;;;0.65;0.57;;;14.50;79.20;;;;;;4189130;28;20056;-71
2021/12/01 08:34:32;;;;;;;1.15;0.47;;;14.50;79.20;;;;;;4186087;28;20347;-72
2021/12/01 08:36:35;;;;;;;2.47;0.70;;;14.50;79.10;;;;;;4175688;28;20064;-72
2021/12/01 08:38:39;;;;;;;0.60;0.40;;;14.50;79.10;;;;;;4174739;28;20072;-70
2021/12/01 08:40:44;;;;;;;1.30;0.50;;;14.50;79.10;;;;;;4183945;28;20076;-70
2021/12/01 08:42:47;;;;;;;0.60;0.45;;;14.50;79.20;;;;;;4173707;28;20073;-72
2021/12/01 08:44:51;;;;;;;2.38;0.50;;;14.50;79.20;;;;;;4178308;28;20116;-73
2021/12/01 08:46:54;;;;;;;0.98;0.50;;;14.50;79.20;;;;;;4188878;28;20058;-70
2021/12/01 08:49:00;;;;;;;0.95;0.40;;;14.50;79.30;;;;;;4187917;28;20076;-73
2021/12/01 08:51:04;;;;;;;1.52;0.55;;;14.50;79.40;;;;;;4179840;28;20065;-71
2021/12/01 08:53:07;;;;;;;1.35;0.57;;;14.50;79.20;;;;;;4176970;28;20068;-73
2021/12/01 08:55:10;;;;;;;2.38;0.68;;;14.60;79.30;;;;;;4179177;28;20514;-71
2021/12/01 08:57:14;;;;;;;0.88;0.40;;;14.50;79.20;;;;;;4188123;28;20068;-71
2021/12/01 08:59:17;;;;;;;0.88;0.43;;;14.60;79.20;;;;;;4188139;28;20071;-71
2021/12/01 09:01:19;;;;;;;1.25;0.57;;;14.50;79.10;;;;;;4180396;28;20354;-71
2021/12/01 09:03:24;;;;;;;2.05;0.57;;;14.60;79.40;;;;;;4189991;28;20112;-72
2021/12/01 09:05:27;;;;;;;;;;;14.60;79.30;;;;;;4180641;28;20124;-72
2021/12/01 09:07:30;;;;;;;0.77;0.43;;;14.60;79.30;;;;;;4187378;28;19980;-71
2021/12/01 09:09:33;;;;;;;1.42;0.52;;;14.60;79.30;;;;;;4188856;28;20064;-71
2021/12/01 09:11:36;;;;;;;3.70;0.70;;;14.60;79.40;;;;;;4190000;28;20116;-71
2021/12/01 09:13:41;;;;;;;2.45;0.90;;;14.60;79.40;;;;;;4189936;28;20385;-71
2021/12/01 09:15:56;;;;;;;1.73;0.57;;;14.60;79.50;;;;;;4178535;28;20144;-70
2021/12/01 09:18:00;;;;;;;0.65;0.50;;;14.60;79.40;;;;;;4188453;28;20094;-71
2021/12/01 09:20:04;;;;;;;3.38;1.02;;;14.60;79.40;;;;;;4185334;28;20417;-71
2021/12/01 09:22:07;;;;;;;1.08;0.50;;;14.60;79.30;;;;;;4182869;28;20081;-71
2021/12/01 09:24:10;;;;;;;1.15;0.63;;;14.60;79.20;;;;;;4173250;28;20372;-70
2021/12/01 09:26:13;;;;;;;3.47;0.88;;;14.60;79.10;;;;;;4183317;28;20068;-71
2021/12/01 09:28:22;;;;;;;1.52;0.70;;;14.70;79.10;;;;;;4174782;28;20369;-71
2021/12/01 09:30:27;;;;;;;1.63;0.70;;;14.60;79.20;;;;;;4175527;28;20112;-71
2021/12/01 09:32:33;;;;;;;;;;;14.60;79.10;;;;;;4182936;28;20338;-70
2021/12/01 09:34:39;;;;;;;2.15;0.90;;;14.60;79.20;;;;;;4173038;28;19936;-71
2021/12/01 09:36:42;;;;;;;2.88;0.70;;;14.60;79.30;;;;;;4184322;28;20113;-71
2021/12/01 09:38:45;;;;;;;0.77;0.63;;;14.60;79.30;;;;;;4173713;28;20072;-70
2021/12/01 09:40:51;;;;;;;4.53;1.17;;;14.60;79.20;;;;;;4175126;28;20065;-70
2021/12/01 09:42:55;;;;;;;1.52;0.65;;;14.60;79.20;;;;;;4182003;28;20069;-71
2021/12/01 09:44:58;;;;;;;2.08;0.50;;;14.70;79.20;;;;;;4189121;28;20079;-72
2021/12/01 09:47:04;;;;;;;1.00;0.43;;;14.70;79.30;;;;;;4178113;28;20358;-71
2021/12/01 09:49:07;;;;;;;3.08;0.50;;;14.60;79.20;;;;;;4189694;28;20404;-72
2021/12/01 09:51:11;;;;;;;1.75;0.70;;;14.70;79.10;;;;;;4185431;28;20196;-71
2021/12/01 09:53:15;;;;;;;1.95;0.70;;;14.70;79.10;;;;;;4180317;28;20117;-71
2021/12/01 09:55:19;;;;;;;2.63;0.70;;;14.70;79.00;;;;;;4189255;28;20112;-71
2021/12/01 09:57:22;;;;;;;1.67;0.70;;;14.70;79.00;;;;;;4177994;28;20113;-70
2021/12/01 09:59:25;;;;;;;1.42;0.70;;;14.70;79.00;;;;;;4188482;28;20072;-72
2021/12/01 10:01:29;;;;;;;1.65;0.70;;;14.70;78.90;;;;;;4184881;28;20076;-70
2021/12/01 10:03:34;;;;;;;2.88;0.80;;;14.70;78.90;;;;;;4181889;28;20069;-71
2021/12/01 10:05:48;;;;;;;2.25;0.80;;;14.70;78.90;;;;;;4172545;28;20120;-71
2021/12/01 10:07:51;;;;;;;2.70;0.68;;;14.70;78.90;;;;;;4187349;28;20076;-70
2021/12/01 10:09:57;;;;;;;5.47;0.90;;;14.70;78.70;;;;;;4172352;28;20069;-70
2021/12/01 10:12:06;;;;;;;2.35;0.60;;;14.70;78.70;;;;;;4176184;28;20085;-70
2021/12/01 10:14:17;;;;;;;3.28;0.88;;;14.70;78.70;;;;;;4181531;28;20112;-70
2021/12/01 10:16:21;;;;;;;1.10;0.60;;;14.80;78.70;;;;;;4187744;28;20108;-71
2021/12/01 10:18:25;;;;;;;2.08;0.60;;;14.80;78.70;;;;;;4183940;28;20091;-71
2021/12/01 10:20:30;;;;;;;1.00;0.50;;;14.80;78.70;;;;;;4172297;28;20069;-71
2021/12/01 10:22:33;;;;;;;2.25;0.75;;;14.80;78.60;;;;;;4177684;28;20553;-71
2021/12/01 10:24:39;;;;;;;1.48;0.90;;;14.80;78.50;;;;;;4178517;28;20068;-71
2021/12/01 10:26:45;;;;;;;3.47;0.80;;;14.80;78.50;;;;;;4173289;28;20073;-71
2021/12/01 10:28:50;;;;;;;2.30;0.70;;;14.80;78.50;;;;;;4185606;28;20088;-72
2021/12/01 10:30:53;;;;;;;2.50;0.70;;;14.70;78.50;;;;;;4188828;28;20069;-71
2021/12/01 10:33:06;;;;;;;1.30;0.68;;;14.80;79.10;;;;;;4182271;28;20270;-70
2021/12/01 10:35:09;;;;;;;1.83;0.60;;;14.80;78.50;;;;;;4184043;28;20072;-70
2021/12/01 10:37:18;;;;;;;2.15;0.95;;;14.80;78.50;;;;;;4185839;28;20123;-72
2021/12/01 10:39:22;;;;;;;3.05;0.80;;;14.80;78.50;;;;;;4187020;28;20112;-73
2021/12/01 10:41:34;;;;;;;2.63;0.68;;;14.80;78.50;;;;;;4188872;28;20124;-70
2021/12/01 10:43:43;;;;;;;1.40;0.98;;;14.80;78.70;;;;;;4187069;28;20116;-70
2021/12/01 10:45:47;;;;;;;4.68;0.90;;;14.80;78.90;;;;;;4187884;28;20061;-71
2021/12/01 10:47:51;;;;;;;5.25;1.08;;;14.80;79.20;;;;;;4186887;28;20068;-69
2021/12/01 10:49:58;;;;;;;10.77;1.10;;;14.80;79.90;;;;;;4177313;28;20064;-71
2021/12/01 10:52:01;;;;;;;6.55;1.10;;;14.80;80.10;;;;;;4181132;28;20060;-72